sensor_id;sensor_type;location;lat;lon;timestamp;pressure;altitude;pressure_sealevel;temperature;humidity
45888;BME280;31595;51.418;7.572;2023-02-19T00:01:35;100368.53;;;11.63;80.73
45888;BME280;31595;51.418;7.572;2023-02-19T00:04:06;100371.00;;;11.64;80.75
45888;BME280;31595;51.418;7.572;2023-02-19T00:06:34;100374.81;;;11.68;81.16
45888;BME280;31595;51.418;7.572;2023-02-19T00:09:03;100370.34;;;11.67;80.91
45888;BME280;31595;51.418;7.572;2023-02-19T00:11:34;100377.09;;;11.66;80.98
45888;BME280;31595;51.418;7.572;2023-02-19T00:14:05;100377.59;;;11.68;80.37
45888;BME280;31595;51.418;7.572;2023-02-19T00:16:34;100383.66;;;11.70;79.61
45888;BME280;31595;51.418;7.572;2023-02-19T00:19:04;100383.84;;;11.74;79.50
45888;BME280;31595;51.418;7.572;2023-02-19T00:21:32;100374.81;;;11.77;80.22
45888;BME280;31595;51.418;7.572;2023-02-19T00:24:01;100378.09;;;11.79;79.59
45888;BME280;31595;51.418;7.572;2023-02-19T00:26:28;100381.22;;;11.77;79.05
45888;BME280;31595;51.418;7.572;2023-02-19T00:29:00;100380.22;;;11.82;79.44
45888;BME280;31595;51.418;7.572;2023-02-19T00:31:30;100383.53;;;11.84;79.49
45888;BME280;31595;51.418;7.572;2023-02-19T00:34:00;100390.97;;;11.89;79.14
45888;BME280;31595;51.418;7.572;2023-02-19T00:36:28;100377.13;;;11.84;78.87
45888;BME280;31595;51.418;7.572;2023-02-19T00:38:55;100374.19;;;11.80;78.55
45888;BME280;31595;51.418;7.572;2023-02-19T00:41:24;100374.66;;;11.82;78.53
45888;BME280;31595;51.418;7.572;2023-02-19T00:43:53;100365.63;;;11.76;78.80
45888;BME280;31595;51.418;7.572;2023-02-19T00:46:24;100365.63;;;11.76;78.90
45888;BME280;31595;51.418;7.572;2023-02-19T00:48:54;100365.47;;;11.82;78.77
45888;BME280;31595;51.418;7.572;2023-02-19T00:51:23;100362.66;;;11.82;78.57
45888;BME280;31595;51.418;7.572;2023-02-19T00:53:54;100362.84;;;11.85;78.44
45888;BME280;31595;51.418;7.572;2023-02-19T00:56:22;100358.59;;;11.88;78.25
45888;BME280;31595;51.418;7.572;2023-02-19T00:58:50;100345.34;;;11.93;78.34
45888;BME280;31595;51.418;7.572;2023-02-19T01:01:18;100360.78;;;11.91;77.65
45888;BME280;31595;51.418;7.572;2023-02-19T01:03:45;100357.81;;;11.96;77.70
45888;BME280;31595;51.418;7.572;2023-02-19T01:06:16;100364.38;;;12.00;77.24
45888;BME280;31595;51.418;7.572;2023-02-19T01:08:44;100358.78;;;12.00;77.11
45888;BME280;31595;51.418;7.572;2023-02-19T01:11:12;100358.31;;;11.98;77.36
45888;BME280;31595;51.418;7.572;2023-02-19T01:13:43;100340.25;;;12.04;77.09
45888;BME280;31595;51.418;7.572;2023-02-19T01:16:13;100347.94;;;12.07;77.09
45888;BME280;31595;51.418;7.572;2023-02-19T01:18:41;100349.59;;;12.08;77.00
45888;BME280;31595;51.418;7.572;2023-02-19T01:21:11;100357.50;;;12.06;77.29
45888;BME280;31595;51.418;7.572;2023-02-19T01:23:40;100357.50;;;12.06;77.56
45888;BME280;31595;51.418;7.572;2023-02-19T01:26:10;100354.88;;;12.01;77.12
45888;BME280;31595;51.418;7.572;2023-02-19T01:28:39;100346.81;;;12.00;77.42
45888;BME280;31595;51.418;7.572;2023-02-19T01:31:09;100346.81;;;12.00;77.06
45888;BME280;31595;51.418;7.572;2023-02-19T01:33:38;100347.63;;;12.00;76.95
45888;BME280;31595;51.418;7.572;2023-02-19T01:36:06;100343.72;;;12.01;77.17
45888;BME280;31595;51.418;7.572;2023-02-19T01:38:33;100343.03;;;12.04;77.36
45888;BME280;31595;51.418;7.572;2023-02-19T01:41:04;100345.34;;;12.02;77.31
45888;BME280;31595;51.418;7.572;2023-02-19T01:43:33;100339.44;;;11.95;77.36
45888;BME280;31595;51.418;7.572;2023-02-19T01:46:01;100341.56;;;11.98;77.10
45888;BME280;31595;51.418;7.572;2023-02-19T01:48:34;100345.81;;;11.95;77.62
45888;BME280;31595;51.418;7.572;2023-02-19T01:51:06;100341.72;;;11.93;77.53
45888;BME280;31595;51.418;7.572;2023-02-19T01:53:37;100337.13;;;11.97;77.19
45888;BME280;31595;51.418;7.572;2023-02-19T01:56:07;100337.28;;;12.01;76.91
45888;BME280;31595;51.418;7.572;2023-02-19T01:58:35;100337.47;;;12.04;77.30
45888;BME280;31595;51.418;7.572;2023-02-19T02:01:06;100321.69;;;12.08;77.21
45888;BME280;31595;51.418;7.572;2023-02-19T02:03:35;100323.00;;;12.02;77.89
45888;BME280;31595;51.418;7.572;2023-02-19T02:06:08;100323.19;;;12.06;77.53
45888;BME280;31595;51.418;7.572;2023-02-19T02:08:38;100326.47;;;12.08;77.53
45888;BME280;31595;51.418;7.572;2023-02-19T02:11:28;100331.88;;;11.95;77.76
45888;BME280;31595;51.418;7.572;2023-02-19T02:13:56;100324.13;;;11.92;78.19
45888;BME280;31595;51.418;7.572;2023-02-19T02:16:28;100326.59;;;11.94;77.30
45888;BME280;31595;51.418;7.572;2023-02-19T02:19:05;100324.31;;;11.96;78.35
45888;BME280;31595;51.418;7.572;2023-02-19T02:21:55;100330.22;;;11.94;78.65
45888;BME280;31595;51.418;7.572;2023-02-19T02:27:45;100323.81;;;12.03;78.35
45888;BME280;31595;51.418;7.572;2023-02-19T02:30:28;100321.19;;;11.97;79.44
45888;BME280;31595;51.418;7.572;2023-02-19T02:33:03;100319.72;;;12.00;79.86
45888;BME280;31595;51.418;7.572;2023-02-19T02:35:37;100320.69;;;12.04;79.33
45888;BME280;31595;51.418;7.572;2023-02-19T02:38:07;100320.38;;;11.97;79.25
45888;BME280;31595;51.418;7.572;2023-02-19T02:40:39;100321.34;;;11.92;79.13
45888;BME280;31595;51.418;7.572;2023-02-19T02:43:08;100328.09;;;11.91;79.41
45888;BME280;31595;51.418;7.572;2023-02-19T02:45:40;100328.91;;;11.92;79.70
45888;BME280;31595;51.418;7.572;2023-02-19T02:48:16;100334.00;;;11.90;78.91
45888;BME280;31595;51.418;7.572;2023-02-19T02:50:46;100338.22;;;11.87;78.84
45888;BME280;31595;51.418;7.572;2023-02-19T02:53:19;100338.94;;;11.93;79.08
45888;BME280;31595;51.418;7.572;2023-02-19T02:56:05;100343.19;;;11.90;77.79
45888;BME280;31595;51.418;7.572;2023-02-19T02:58:34;100342.38;;;11.90;77.62
45888;BME280;31595;51.418;7.572;2023-02-19T03:01:05;100340.72;;;11.89;78.02
45888;BME280;31595;51.418;7.572;2023-02-19T03:03:56;100343.00;;;11.87;77.15
45888;BME280;31595;51.418;7.572;2023-02-19T03:06:28;100353.53;;;11.90;77.94
45888;BME280;31595;51.418;7.572;2023-02-19T03:09:01;100349.09;;;11.89;77.53
45888;BME280;31595;51.418;7.572;2023-02-19T03:11:33;100336.91;;;11.85;77.48
45888;BME280;31595;51.418;7.572;2023-02-19T03:14:23;100350.69;;;11.81;77.83
45888;BME280;31595;51.418;7.572;2023-02-19T03:17:15;100345.44;;;11.79;77.63
45888;BME280;31595;51.418;7.572;2023-02-19T03:20:05;100338.38;;;11.82;77.17
45888;BME280;31595;51.418;7.572;2023-02-19T03:22:37;100339.34;;;11.77;77.01
45888;BME280;31595;51.418;7.572;2023-02-19T03:25:08;100346.09;;;11.76;76.78
45888;BME280;31595;51.418;7.572;2023-02-19T03:27:55;100346.59;;;11.78;77.17
45888;BME280;31595;51.418;7.572;2023-02-19T03:30:27;100358.41;;;11.84;77.47
45888;BME280;31595;51.418;7.572;2023-02-19T03:32:59;100348.59;;;11.87;77.10
45888;BME280;31595;51.418;7.572;2023-02-19T03:35:30;100359.09;;;11.90;77.18
45888;BME280;31595;51.418;7.572;2023-02-19T03:38:03;100355.78;;;11.88;77.06
45888;BME280;31595;51.418;7.572;2023-02-19T03:40:42;100359.28;;;11.93;76.43
45888;BME280;31595;51.418;7.572;2023-02-19T03:43:16;100362.88;;;11.94;77.00
45888;BME280;31595;51.418;7.572;2023-02-19T03:45:50;100368.78;;;11.92;76.63
45888;BME280;31595;51.418;7.572;2023-02-19T03:48:29;100378.50;;;11.95;76.88
45888;BME280;31595;51.418;7.572;2023-02-19T03:51:06;100377.84;;;11.98;76.10
45888;BME280;31595;51.418;7.572;2023-02-19T03:53:46;100384.59;;;11.97;76.44
45888;BME280;31595;51.418;7.572;2023-02-19T03:56:18;100392.78;;;11.93;75.35
45888;BME280;31595;51.418;7.572;2023-02-19T03:58:50;100386.69;;;11.91;76.33
45888;BME280;31595;51.418;7.572;2023-02-19T04:01:25;100390.31;;;11.92;75.76
45888;BME280;31595;51.418;7.572;2023-02-19T04:03:58;100400.44;;;11.88;75.54
45888;BME280;31595;51.418;7.572;2023-02-19T04:06:30;100396.97;;;11.82;75.83
45888;BME280;31595;51.418;7.572;2023-02-19T04:09:02;100397.97;;;11.77;76.25
45888;BME280;31595;51.418;7.572;2023-02-19T04:11:31;100413.41;;;11.84;76.59
45888;BME280;31595;51.418;7.572;2023-02-19T04:14:01;100414.06;;;11.81;77.13
45888;BME280;31595;51.418;7.572;2023-02-19T04:16:31;100410.94;;;11.82;76.87
45888;BME280;31595;51.418;7.572;2023-02-19T04:19:05;100424.06;;;11.82;77.10
45888;BME280;31595;51.418;7.572;2023-02-19T04:21:37;100429.66;;;11.82;76.87
45888;BME280;31595;51.418;7.572;2023-02-19T04:24:09;100425.22;;;11.81;77.11
45888;BME280;31595;51.418;7.572;2023-02-19T04:26:37;100425.38;;;11.84;76.43
45888;BME280;31595;51.418;7.572;2023-02-19T04:29:06;100430.63;;;11.77;75.98
45888;BME280;31595;51.418;7.572;2023-02-19T04:31:34;100441.47;;;11.78;75.93
45888;BME280;31595;51.418;7.572;2023-02-19T04:34:03;100431.59;;;11.72;75.47
45888;BME280;31595;51.418;7.572;2023-02-19T04:36:31;100441.75;;;11.68;75.18
45888;BME280;31595;51.418;7.572;2023-02-19T04:38:59;100438.13;;;11.59;75.60
45888;BME280;31595;51.418;7.572;2023-02-19T04:41:26;100441.72;;;11.60;75.80
45888;BME280;31595;51.418;7.572;2023-02-19T04:43:53;100454.72;;;11.64;75.61
45888;BME280;31595;51.418;7.572;2023-02-19T04:46:21;100448.94;;;11.61;75.82
45888;BME280;31595;51.418;7.572;2023-02-19T04:48:48;100462.41;;;11.58;76.06
45888;BME280;31595;51.418;7.572;2023-02-19T04:51:17;100461.25;;;11.60;75.77
45888;BME280;31595;51.418;7.572;2023-02-19T04:53:44;100462.59;;;11.62;75.41
45888;BME280;31595;51.418;7.572;2023-02-19T04:56:13;100471.44;;;11.64;75.25
45888;BME280;31595;51.418;7.572;2023-02-19T04:58:41;100470.13;;;11.62;75.32
45888;BME280;31595;51.418;7.572;2023-02-19T05:01:09;100469.16;;;11.66;75.02
45888;BME280;31595;51.418;7.572;2023-02-19T05:03:37;100464.22;;;11.63;74.59
45888;BME280;31595;51.418;7.572;2023-02-19T05:06:06;100468.81;;;11.59;74.92
45888;BME280;31595;51.418;7.572;2023-02-19T05:08:35;100470.75;;;11.58;74.50
45888;BME280;31595;51.418;7.572;2023-02-19T05:11:04;100474.75;;;11.66;74.57
45888;BME280;31595;51.418;7.572;2023-02-19T05:13:32;100472.25;;;11.65;74.30
45888;BME280;31595;51.418;7.572;2023-02-19T05:16:01;100478.00;;;11.60;74.78
45888;BME280;31595;51.418;7.572;2023-02-19T05:18:30;100490.97;;;11.64;75.46
45888;BME280;31595;51.418;7.572;2023-02-19T05:21:00;100497.56;;;11.68;74.99
45888;BME280;31595;51.418;7.572;2023-02-19T05:23:27;100491.59;;;11.61;75.09
45888;BME280;31595;51.418;7.572;2023-02-19T05:26:00;100499.97;;;11.61;75.24
45888;BME280;31595;51.418;7.572;2023-02-19T05:28:30;100501.94;;;11.61;75.45
45888;BME280;31595;51.418;7.572;2023-02-19T05:30:57;100501.78;;;11.57;75.63
45888;BME280;31595;51.418;7.572;2023-02-19T05:33:25;100510.16;;;11.57;75.39
45888;BME280;31595;51.418;7.572;2023-02-19T05:35:53;100518.19;;;11.58;75.30
45888;BME280;31595;51.418;7.572;2023-02-19T05:38:22;100527.41;;;11.59;75.22
45888;BME280;31595;51.418;7.572;2023-02-19T05:40:49;100518.53;;;11.57;74.91
45888;BME280;31595;51.418;7.572;2023-02-19T05:43:18;100538.88;;;11.57;74.58
45888;BME280;31595;51.418;7.572;2023-02-19T05:45:45;100530.19;;;11.59;74.68
45888;BME280;31595;51.418;7.572;2023-02-19T05:48:13;100531.31;;;11.58;74.60
45888;BME280;31595;51.418;7.572;2023-02-19T05:50:40;100521.94;;;11.54;74.63
45888;BME280;31595;51.418;7.572;2023-02-19T05:53:08;100532.59;;;11.52;74.53
45888;BME280;31595;51.418;7.572;2023-02-19T05:55:35;100543.06;;;11.46;74.31
45888;BME280;31595;51.418;7.572;2023-02-19T05:58:03;100532.75;;;11.47;74.85
45888;BME280;31595;51.418;7.572;2023-02-19T06:00:32;100535.69;;;11.50;75.05
45888;BME280;31595;51.418;7.572;2023-02-19T06:02:59;100546.03;;;11.50;74.53
45888;BME280;31595;51.418;7.572;2023-02-19T06:05:26;100551.13;;;11.48;74.69
45888;BME280;31595;51.418;7.572;2023-02-19T06:07:54;100542.13;;;11.51;74.45
45888;BME280;31595;51.418;7.572;2023-02-19T06:10:24;100553.78;;;11.53;74.85
45888;BME280;31595;51.418;7.572;2023-02-19T06:12:53;100554.72;;;11.48;74.63
45888;BME280;31595;51.418;7.572;2023-02-19T06:15:20;100548.00;;;11.49;74.38
45888;BME280;31595;51.418;7.572;2023-02-19T06:17:49;100557.19;;;11.50;74.76
45888;BME280;31595;51.418;7.572;2023-02-19T06:20:16;100561.75;;;11.46;75.21
45888;BME280;31595;51.418;7.572;2023-02-19T06:22:44;100556.38;;;11.49;75.06
45888;BME280;31595;51.418;7.572;2023-02-19T06:25:11;100567.53;;;11.49;74.42
45888;BME280;31595;51.418;7.572;2023-02-19T06:27:38;100568.34;;;11.50;74.69
45888;BME280;31595;51.418;7.572;2023-02-19T06:30:06;100557.69;;;11.52;74.57
45888;BME280;31595;51.418;7.572;2023-02-19T06:32:35;100571.66;;;11.52;74.66
45888;BME280;31595;51.418;7.572;2023-02-19T06:35:04;100575.75;;;11.54;74.80
45888;BME280;31595;51.418;7.572;2023-02-19T06:37:32;100573.81;;;11.55;74.08
45888;BME280;31595;51.418;7.572;2023-02-19T06:39:59;100575.97;;;11.58;74.37
45888;BME280;31595;51.418;7.572;2023-02-19T06:42:26;100588.91;;;11.54;74.54
45888;BME280;31595;51.418;7.572;2023-02-19T06:44:53;100584.13;;;11.54;74.60
45888;BME280;31595;51.418;7.572;2023-02-19T06:47:20;100579.72;;;11.53;74.09
45888;BME280;31595;51.418;7.572;2023-02-19T06:49:48;100593.00;;;11.56;73.93
45888;BME280;31595;51.418;7.572;2023-02-19T06:52:16;100594.78;;;11.52;74.13
45888;BME280;31595;51.418;7.572;2023-02-19T06:54:45;100592.50;;;11.54;74.35
45888;BME280;31595;51.418;7.572;2023-02-19T06:57:12;100603.50;;;11.51;74.42
45888;BME280;31595;51.418;7.572;2023-02-19T06:59:40;100596.44;;;11.53;74.43
45888;BME280;31595;51.418;7.572;2023-02-19T07:02:09;100598.34;;;11.44;74.28
45888;BME280;31595;51.418;7.572;2023-02-19T07:04:37;100608.06;;;11.47;74.55
45888;BME280;31595;51.418;7.572;2023-02-19T07:07:05;100615.66;;;11.55;74.32
45888;BME280;31595;51.418;7.572;2023-02-19T07:09:33;100608.63;;;11.57;74.67
45888;BME280;31595;51.418;7.572;2023-02-19T07:12:01;100613.88;;;11.59;75.09
45888;BME280;31595;51.418;7.572;2023-02-19T07:14:28;100625.34;;;11.57;74.87
45888;BME280;31595;51.418;7.572;2023-02-19T07:16:55;100626.63;;;11.51;74.67
45888;BME280;31595;51.418;7.572;2023-02-19T07:19:26;100629.78;;;11.58;74.27
45888;BME280;31595;51.418;7.572;2023-02-19T07:21:53;100647.22;;;11.42;75.25
45888;BME280;31595;51.418;7.572;2023-02-19T07:24:23;100647.97;;;11.56;76.10
45888;BME280;31595;51.418;7.572;2023-02-19T07:26:52;100653.75;;;11.60;75.90
45888;BME280;31595;51.418;7.572;2023-02-19T07:29:19;100667.81;;;11.77;74.30
45888;BME280;31595;51.418;7.572;2023-02-19T07:31:46;100660.97;;;11.83;73.89
45888;BME280;31595;51.418;7.572;2023-02-19T07:34:14;100666.75;;;11.87;73.41
45888;BME280;31595;51.418;7.572;2023-02-19T07:36:41;100671.72;;;11.90;73.07
45888;BME280;31595;51.418;7.572;2023-02-19T07:39:11;100674.19;;;11.91;72.70
45888;BME280;31595;51.418;7.572;2023-02-19T07:41:39;100681.16;;;11.80;73.10
45888;BME280;31595;51.418;7.572;2023-02-19T07:44:07;100680.81;;;11.82;73.25
45888;BME280;31595;51.418;7.572;2023-02-19T07:46:38;100690.22;;;11.86;72.99
45888;BME280;31595;51.418;7.572;2023-02-19T07:49:05;100691.63;;;11.74;72.70
45888;BME280;31595;51.418;7.572;2023-02-19T07:51:33;100694.09;;;11.76;72.72
45888;BME280;31595;51.418;7.572;2023-02-19T07:54:00;100689.78;;;11.70;73.04
45888;BME280;31595;51.418;7.572;2023-02-19T07:56:27;100700.69;;;11.80;73.14
45888;BME280;31595;51.418;7.572;2023-02-19T07:58:55;100693.25;;;11.75;73.00
45888;BME280;31595;51.418;7.572;2023-02-19T08:01:24;100697.72;;;11.76;73.20
45888;BME280;31595;51.418;7.572;2023-02-19T08:04:05;100704.94;;;11.77;73.03
45888;BME280;31595;51.418;7.572;2023-02-19T08:06:32;100706.59;;;11.78;73.54
45888;BME280;31595;51.418;7.572;2023-02-19T08:08:59;100712.69;;;11.81;73.57
45888;BME280;31595;51.418;7.572;2023-02-19T08:11:26;100701.97;;;11.74;73.07
45888;BME280;31595;51.418;7.572;2023-02-19T08:14:23;100707.72;;;11.77;73.51
45888;BME280;31595;51.418;7.572;2023-02-19T08:16:52;100721.50;;;11.74;73.02
45888;BME280;31595;51.418;7.572;2023-02-19T08:19:20;100725.09;;;11.74;72.58
45888;BME280;31595;51.418;7.572;2023-02-19T08:21:47;100733.22;;;11.85;72.46
45888;BME280;31595;51.418;7.572;2023-02-19T08:24:15;100740.97;;;11.88;72.20
45888;BME280;31595;51.418;7.572;2023-02-19T08:26:42;100739.88;;;11.89;72.63
45888;BME280;31595;51.418;7.572;2023-02-19T08:29:10;100740.97;;;11.88;72.01
45888;BME280;31595;51.418;7.572;2023-02-19T08:31:37;100742.66;;;11.89;71.92
45888;BME280;31595;51.418;7.572;2023-02-19T08:34:06;100738.47;;;11.86;72.36
45888;BME280;31595;51.418;7.572;2023-02-19T08:36:33;100739.31;;;11.87;72.24
45888;BME280;31595;51.418;7.572;2023-02-19T08:39:10;100730.22;;;11.95;71.78
45888;BME280;31595;51.418;7.572;2023-02-19T08:41:39;100747.78;;;11.95;71.89
45888;BME280;31595;51.418;7.572;2023-02-19T08:44:06;100754.69;;;11.98;71.39
45888;BME280;31595;51.418;7.572;2023-02-19T08:46:33;100751.66;;;12.08;71.70
45888;BME280;31595;51.418;7.572;2023-02-19T08:49:01;100748.97;;;12.03;71.60
45888;BME280;31595;51.418;7.572;2023-02-19T08:51:29;100752.88;;;12.16;70.64
45888;BME280;31595;51.418;7.572;2023-02-19T08:53:57;100755.84;;;12.19;70.70
45888;BME280;31595;51.418;7.572;2023-02-19T08:56:25;100759.13;;;12.22;70.22
45888;BME280;31595;51.418;7.572;2023-02-19T08:58:52;100754.09;;;12.32;70.46
45888;BME280;31595;51.418;7.572;2023-02-19T09:01:19;100765.72;;;12.48;69.39
45888;BME280;31595;51.418;7.572;2023-02-19T09:03:46;100768.00;;;12.46;68.91
45888;BME280;31595;51.418;7.572;2023-02-19T09:06:15;100759.31;;;12.48;68.75
45888;BME280;31595;51.418;7.572;2023-02-19T09:08:44;100770.53;;;12.56;68.69
45888;BME280;31595;51.418;7.572;2023-02-19T09:11:12;100778.44;;;12.63;68.59
45888;BME280;31595;51.418;7.572;2023-02-19T09:13:40;100781.28;;;12.72;67.90
45888;BME280;31595;51.418;7.572;2023-02-19T09:16:14;100783.59;;;12.78;68.42
45888;BME280;31595;51.418;7.572;2023-02-19T09:18:42;100782.81;;;12.87;67.92
45888;BME280;31595;51.418;7.572;2023-02-19T09:21:10;100786.81;;;12.94;67.54
45888;BME280;31595;51.418;7.572;2023-02-19T09:23:37;100786.53;;;13.05;67.44
45888;BME280;31595;51.418;7.572;2023-02-19T09:26:10;100787.72;;;13.12;66.87
45888;BME280;31595;51.418;7.572;2023-02-19T09:28:39;100800.13;;;12.97;66.45
45888;BME280;31595;51.418;7.572;2023-02-19T09:31:11;100798.63;;;12.91;67.16
45888;BME280;31595;51.418;7.572;2023-02-19T09:33:42;100811.78;;;12.91;65.62
45888;BME280;31595;51.418;7.572;2023-02-19T09:36:10;100813.91;;;12.85;66.10
45888;BME280;31595;51.418;7.572;2023-02-19T09:38:37;100807.94;;;12.78;66.22
45888;BME280;31595;51.418;7.572;2023-02-19T09:41:11;100815.97;;;12.71;67.77
45888;BME280;31595;51.418;7.572;2023-02-19T09:43:41;100820.06;;;12.65;67.61
45888;BME280;31595;51.418;7.572;2023-02-19T09:46:27;100832.75;;;12.48;67.72
45888;BME280;31595;51.418;7.572;2023-02-19T09:49:01;100824.06;;;12.50;67.19
45888;BME280;31595;51.418;7.572;2023-02-19T09:51:31;100819.50;;;12.54;67.32
45888;BME280;31595;51.418;7.572;2023-02-19T09:54:00;100831.75;;;12.67;67.87
45888;BME280;31595;51.418;7.572;2023-02-19T09:56:31;100834.44;;;12.80;67.20
45888;BME280;31595;51.418;7.572;2023-02-19T09:59:01;100836.72;;;12.78;67.38
45888;BME280;31595;51.418;7.572;2023-02-19T10:01:31;100836.72;;;12.78;67.49
45888;BME280;31595;51.418;7.572;2023-02-19T10:04:00;100849.09;;;12.86;66.87
45888;BME280;31595;51.418;7.572;2023-02-19T10:06:27;100860.13;;;12.91;67.52
45888;BME280;31595;51.418;7.572;2023-02-19T10:08:59;100872.63;;;12.85;66.86
45888;BME280;31595;51.418;7.572;2023-02-19T10:11:28;100869.88;;;12.94;66.35
45888;BME280;31595;51.418;7.572;2023-02-19T10:14:03;100867.69;;;12.91;66.93
45888;BME280;31595;51.418;7.572;2023-02-19T10:16:35;100875.50;;;13.03;67.03
45888;BME280;31595;51.418;7.572;2023-02-19T10:19:07;100884.34;;;13.27;65.12
45888;BME280;31595;51.418;7.572;2023-02-19T10:21:35;100892.94;;;13.31;65.00
45888;BME280;31595;51.418;7.572;2023-02-19T10:24:05;100891.59;;;13.28;65.97
45888;BME280;31595;51.418;7.572;2023-02-19T10:26:33;100900.69;;;13.34;65.82
45888;BME280;31595;51.418;7.572;2023-02-19T10:29:03;100903.66;;;13.37;64.29
45888;BME280;31595;51.418;7.572;2023-02-19T10:31:32;100899.06;;;13.42;65.40
45888;BME280;31595;51.418;7.572;2023-02-19T10:34:00;100907.13;;;13.34;64.08
45888;BME280;31595;51.418;7.572;2023-02-19T10:36:30;100918.88;;;13.23;65.30
45888;BME280;31595;51.418;7.572;2023-02-19T10:38:59;100921.63;;;13.14;65.22
45888;BME280;31595;51.418;7.572;2023-02-19T10:41:29;100922.81;;;12.90;65.84
45888;BME280;31595;51.418;7.572;2023-02-19T10:44:04;100926.09;;;12.92;66.38
45888;BME280;31595;51.418;7.572;2023-02-19T10:46:33;100918.16;;;13.08;66.00
45888;BME280;31595;51.418;7.572;2023-02-19T10:49:02;100929.66;;;13.29;66.02
45888;BME280;31595;51.418;7.572;2023-02-19T10:51:33;100925.66;;;13.62;63.97
45888;BME280;31595;51.418;7.572;2023-02-19T10:54:06;100921.41;;;13.81;63.13
45888;BME280;31595;51.418;7.572;2023-02-19T10:56:43;100920.50;;;13.95;62.37
45888;BME280;31595;51.418;7.572;2023-02-19T10:59:20;100926.41;;;15.54;59.93
45888;BME280;31595;51.418;7.572;2023-02-19T11:01:56;100938.06;;;17.78;53.53
45888;BME280;31595;51.418;7.572;2023-02-19T11:04:25;100940.91;;;17.66;52.50
45888;BME280;31595;51.418;7.572;2023-02-19T11:06:53;100941.47;;;17.47;52.68
45888;BME280;31595;51.418;7.572;2023-02-19T11:09:26;100942.28;;;17.02;53.30
45888;BME280;31595;51.418;7.572;2023-02-19T11:11:55;100948.91;;;16.43;54.68
45888;BME280;31595;51.418;7.572;2023-02-19T11:14:25;100943.25;;;16.01;55.16
45888;BME280;31595;51.418;7.572;2023-02-19T11:16:55;100934.97;;;15.75;55.71
45888;BME280;31595;51.418;7.572;2023-02-19T11:19:26;100936.44;;;15.25;56.31
45888;BME280;31595;51.418;7.572;2023-02-19T11:21:54;100939.66;;;14.80;57.68
45888;BME280;31595;51.418;7.572;2023-02-19T11:24:29;100943.31;;;14.63;56.89
45888;BME280;31595;51.418;7.572;2023-02-19T11:26:59;100949.03;;;14.32;58.51
45888;BME280;31595;51.418;7.572;2023-02-19T11:29:29;100946.41;;;14.27;58.83
45888;BME280;31595;51.418;7.572;2023-02-19T11:32:22;100942.28;;;14.24;58.06
45888;BME280;31595;51.418;7.572;2023-02-19T11:34:50;100937.81;;;14.32;58.39
45888;BME280;31595;51.418;7.572;2023-02-19T11:37:19;100946.72;;;14.34;58.66
45888;BME280;31595;51.418;7.572;2023-02-19T11:39:49;100953.81;;;14.23;59.07
45888;BME280;31595;51.418;7.572;2023-02-19T11:42:32;100951.19;;;14.35;58.19
45888;BME280;31595;51.418;7.572;2023-02-19T11:45:14;100946.09;;;14.46;57.93
45888;BME280;31595;51.418;7.572;2023-02-19T11:48:01;100940.00;;;14.70;57.23
45888;BME280;31595;51.418;7.572;2023-02-19T11:50:43;100936.38;;;14.69;56.99
45888;BME280;31595;51.418;7.572;2023-02-19T11:53:16;100927.75;;;15.09;57.52
45888;BME280;31595;51.418;7.572;2023-02-19T11:55:56;100924.50;;;15.37;56.41
45888;BME280;31595;51.418;7.572;2023-02-19T11:58:53;100927.72;;;15.65;55.75
45888;BME280;31595;51.418;7.572;2023-02-19T12:01:32;100930.81;;;16.02;54.63
45888;BME280;31595;51.418;7.572;2023-02-19T12:04:24;100927.69;;;16.67;52.86
45888;BME280;31595;51.418;7.572;2023-02-19T12:07:02;100920.56;;;16.27;53.45
45888;BME280;31595;51.418;7.572;2023-02-19T12:09:42;100921.91;;;16.00;53.55
45888;BME280;31595;51.418;7.572;2023-02-19T12:12:49;100923.41;;;15.97;54.41
45888;BME280;31595;51.418;7.572;2023-02-19T12:15:54;100926.16;;;16.06;53.67
45888;BME280;31595;51.418;7.572;2023-02-19T12:22:10;100934.81;;;16.01;53.18
45888;BME280;31595;51.418;7.572;2023-02-19T12:25:05;100927.94;;;15.90;53.76
45888;BME280;31595;51.418;7.572;2023-02-19T12:34:32;100942.47;;;14.97;56.48
45888;BME280;31595;51.418;7.572;2023-02-19T12:37:19;100952.22;;;14.74;57.71
45888;BME280;31595;51.418;7.572;2023-02-19T12:42:49;100960.59;;;14.48;58.71
45888;BME280;31595;51.418;7.572;2023-02-19T12:46:36;100963.97;;;13.92;60.95
45888;BME280;31595;51.418;7.572;2023-02-19T12:49:18;100972.50;;;13.78;60.19
45888;BME280;31595;51.418;7.572;2023-02-19T12:52:27;100974.63;;;13.81;61.14
45888;BME280;31595;51.418;7.572;2023-02-19T12:55:18;100995.88;;;13.83;61.59
45888;BME280;31595;51.418;7.572;2023-02-19T12:58:01;100992.25;;;13.73;61.54
45888;BME280;31595;51.418;7.572;2023-02-19T13:03:50;100999.25;;;14.11;60.62
45888;BME280;31595;51.418;7.572;2023-02-19T13:06:39;101003.88;;;14.07;60.43
45888;BME280;31595;51.418;7.572;2023-02-19T13:09:12;101002.56;;;14.13;60.74
45888;BME280;31595;51.418;7.572;2023-02-19T13:11:45;101007.06;;;14.23;60.83
45888;BME280;31595;51.418;7.572;2023-02-19T13:14:24;100998.84;;;14.44;60.00
45888;BME280;31595;51.418;7.572;2023-02-19T13:16:57;100998.56;;;14.63;60.18
45888;BME280;31595;51.418;7.572;2023-02-19T13:19:29;100989.84;;;14.73;59.71
45888;BME280;31595;51.418;7.572;2023-02-19T13:22:02;100980.75;;;14.76;59.78
45888;BME280;31595;51.418;7.572;2023-02-19T13:24:50;100988.19;;;14.80;59.13
45888;BME280;31595;51.418;7.572;2023-02-19T13:27:42;100990.81;;;14.77;58.50
45888;BME280;31595;51.418;7.572;2023-02-19T13:30:36;100990.66;;;14.65;59.13
45888;BME280;31595;51.418;7.572;2023-02-19T13:33:24;101000.84;;;14.52;60.21
45888;BME280;31595;51.418;7.572;2023-02-19T13:36:10;100994.06;;;14.53;58.99